Time;durP1;ratioP1;P1;durP2;ratioP2;P2;SDS_P1;SDS_P2;PMS_P1;PMS_P2;Temp;Humidity;BMP_temperature;BMP_pressure;BME280_temperature;BME280_humidity;BME280_pressure;Samples;Min_cycle;Max_cycle;Signal;HPM_P1;HPM_P2
2021/11/29 00:01:19;;;;;;;41.72;17.75;;;;;;;-0.54;85.66;96396.06;5090633;28;20177;-68
2021/11/29 00:03:45;;;;;;;42.20;17.10;;;;;;;-0.51;86.09;96394.69;5073314;28;20028;-68
2021/11/29 00:06:10;;;;;;;50.25;22.38;;;;;;;-0.52;85.72;96407.38;5090913;28;20380;-68
2021/11/29 00:08:36;;;;;;;45.17;19.10;;;;;;;-0.48;85.83;96413.81;5090993;28;20028;-68
2021/11/29 00:11:01;;;;;;;52.55;22.10;;;;;;;-0.48;85.66;96408.44;5072668;28;20085;-69
2021/11/29 00:13:27;;;;;;;42.92;17.73;;;;;;;-0.49;85.66;96416.75;5072034;28;20023;-68
2021/11/29 00:15:52;;;;;;;38.42;15.73;;;;;;;-0.48;86.04;96413.81;5089399;28;20100;-69
2021/11/29 00:18:18;;;;;;;61.83;22.88;;;;;;;-0.47;85.72;96412.72;5090667;28;20045;-69
2021/11/29 00:20:44;;;;;;;38.55;15.32;;;;;;;-0.43;85.98;96406.78;5091083;28;20070;-69
2021/11/29 00:23:12;;;;;;;47.42;19.80;;;;;;;-0.48;85.56;96413.00;5090251;28;20020;-69
2021/11/29 00:25:38;;;;;;;41.25;17.70;;;;;;;-0.55;85.82;96413.28;5091412;28;20028;-68
2021/11/29 00:28:04;;;;;;;36.25;14.85;;;;;;;-0.54;85.58;96414.09;5090460;28;20020;-68
2021/11/29 00:30:29;;;;;;;38.72;15.75;;;;;;;-0.54;85.84;96409.53;5090491;28;20145;-68
2021/11/29 00:32:55;;;;;;;38.25;15.60;;;;;;;-0.54;86.15;96406.84;5089315;28;20089;-68
2021/11/29 00:35:20;;;;;;;34.95;14.82;;;;;;;-0.55;85.87;96404.41;5090196;28;20354;-68
2021/11/29 00:37:46;;;;;;;31.48;13.20;;;;;;;-0.55;86.07;96401.69;5091219;28;20479;-68
2021/11/29 00:40:12;;;;;;;35.72;15.35;;;;;;;-0.56;86.01;96402.78;5090857;28;20586;-68
2021/11/29 00:42:38;;;;;;;33.10;13.70;;;;;;;-0.56;85.65;96405.47;5089770;28;20107;-69
2021/11/29 00:45:06;;;;;;;36.10;15.25;;;;;;;-0.57;85.71;96417.31;5090188;28;20157;-69
2021/11/29 00:47:32;;;;;;;39.60;17.55;;;;;;;-0.57;86.11;96420.03;5071530;28;20035;-67
2021/11/29 00:49:57;;;;;;;38.33;15.32;;;;;;;-0.56;86.09;96424.31;5090265;28;20095;-67
2021/11/29 00:52:23;;;;;;;41.80;17.92;;;;;;;-0.61;86.00;96417.88;5089074;28;20024;-67
2021/11/29 00:54:48;;;;;;;45.25;17.50;;;;;;;-0.62;85.70;96421.69;5089635;28;20107;-70
2021/11/29 00:57:14;;;;;;;39.78;17.20;;;;;;;-0.61;85.93;96423.25;5089999;28;20027;-68
2021/11/29 00:59:40;;;;;;;37.55;16.38;;;;;;;-0.61;86.12;96428.63;5091325;28;20024;-68
2021/11/29 01:02:05;;;;;;;32.67;13.48;;;;;;;-0.60;85.85;96424.88;5090994;28;20108;-67
2021/11/29 01:04:31;;;;;;;31.55;13.77;;;;;;;-0.64;85.93;96426.53;5090608;28;20020;-67
2021/11/29 01:06:56;;;;;;;31.88;13.52;;;;;;;-0.69;85.92;96418.47;5091085;28;20067;-67
2021/11/29 01:09:22;;;;;;;23.90;10.15;;;;;;;-0.68;86.28;96417.38;5090976;28;20016;-67
2021/11/29 01:11:47;;;;;;;26.42;11.65;;;;;;;-0.66;85.94;96415.22;5072377;28;20027;-67
2021/11/29 01:14:15;;;;;;;29.10;11.07;;;;;;;-0.68;86.23;96427.31;5073561;28;20024;-67
2021/11/29 01:16:41;;;;;;;25.05;11.57;;;;;;;-0.71;86.53;96420.63;5091005;28;20028;-67
2021/11/29 01:19:06;;;;;;;26.38;11.45;;;;;;;-0.71;86.37;96423.31;5090478;28;20031;-67
2021/11/29 01:21:32;;;;;;;20.05;9.52;;;;;;;-0.72;86.53;96421.69;5090734;28;20032;-68
2021/11/29 01:23:57;;;;;;;24.88;11.05;;;;;;;-0.70;86.49;96424.91;5090442;28;20070;-67
2021/11/29 01:26:22;;;;;;;26.90;12.15;;;;;;;-0.69;86.15;96418.47;5090827;28;20034;-68
2021/11/29 01:28:48;;;;;;;26.60;12.45;;;;;;;-0.66;86.40;96419.78;5090762;28;20024;-67
2021/11/29 01:31:13;;;;;;;24.30;11.38;;;;;;;-0.66;86.45;96428.69;5090451;28;20047;-67
2021/11/29 01:33:39;;;;;;;26.23;11.45;;;;;;;-0.65;87.04;96426.78;5071909;28;20047;-68
2021/11/29 01:36:05;;;;;;;19.80;9.52;;;;;;;-0.66;86.29;96425.16;5090561;28;20039;-68
2021/11/29 01:38:30;;;;;;;18.40;8.00;;;;;;;-0.63;86.38;96428.13;5089862;28;20512;-68
2021/11/29 01:40:56;;;;;;;24.38;11.93;;;;;;;-0.61;86.52;96430.53;5090348;28;20028;-67
2021/11/29 01:43:21;;;;;;;22.05;10.57;;;;;;;-0.58;86.52;96427.31;5089895;28;20027;-67
2021/11/29 01:45:50;;;;;;;17.42;8.27;;;;;;;-0.57;86.36;96433.47;5090482;28;20088;-68
2021/11/29 01:48:15;;;;;;;25.58;13.27;;;;;;;-0.55;86.53;96428.63;5090368;28;20024;-67
2021/11/29 01:50:45;;;;;;;27.58;12.68;;;;;;;-0.53;86.37;96423.78;5089850;28;20020;-68
2021/11/29 01:53:11;;;;;;;23.77;11.50;;;;;;;-0.51;86.50;96429.69;5089215;28;20028;-68
2021/11/29 01:55:38;;;;;;;31.00;12.68;;;;;;;-0.50;86.39;96434.81;5090324;28;20281;-68
2021/11/29 01:58:05;;;;;;;28.45;11.50;;;;;;;-0.52;86.30;96430.78;5090240;28;20031;-68
2021/11/29 02:00:33;;;;;;;30.38;12.93;;;;;;;-0.53;86.41;96427.28;5090133;28;20050;-68
2021/11/29 02:02:59;;;;;;;28.75;13.02;;;;;;;-0.51;86.17;96435.09;5089978;28;20103;-67
2021/11/29 02:05:25;;;;;;;25.05;10.55;;;;;;;-0.49;86.46;96441.00;5089725;28;20102;-68
2021/11/29 02:07:52;;;;;;;31.60;13.27;;;;;;;-0.47;86.21;96439.66;5071934;28;20115;-68
2021/11/29 02:10:21;;;;;;;27.90;12.35;;;;;;;-0.49;86.00;96441.81;5090084;28;20028;-67
2021/11/29 02:12:47;;;;;;;25.48;11.70;;;;;;;-0.53;85.94;96438.06;5089787;28;20492;-68
2021/11/29 02:15:14;;;;;;;28.10;11.50;;;;;;;-0.52;85.67;96433.47;5089760;28;20108;-68
2021/11/29 02:17:41;;;;;;;28.60;12.55;;;;;;;-0.52;85.90;96430.78;5090036;28;20027;-68
2021/11/29 02:20:08;;;;;;;32.25;14.77;;;;;;;-0.51;85.78;96429.69;5089795;28;20123;-68
2021/11/29 02:22:34;;;;;;;27.10;12.13;;;;;;;-0.51;86.32;96435.91;5089637;28;20475;-67
2021/11/29 02:24:59;;;;;;;24.52;11.13;;;;;;;-0.53;85.84;96434.53;5089131;28;20036;-67
2021/11/29 02:27:25;;;;;;;23.65;10.98;;;;;;;-0.56;86.24;96433.22;5089455;28;20028;-68
2021/11/29 02:29:52;;;;;;;22.13;10.90;;;;;;;-0.57;86.26;96437.00;5071456;28;20047;-68
2021/11/29 02:32:17;;;;;;;24.08;10.23;;;;;;;-0.58;85.92;96438.06;5089381;28;20047;-68
2021/11/29 02:34:43;;;;;;;23.15;10.98;;;;;;;-0.53;86.23;96446.13;5089222;28;20028;-67
2021/11/29 02:37:08;;;;;;;27.73;12.15;;;;;;;-0.52;85.94;96434.28;5089849;28;20034;-68
2021/11/29 02:39:35;;;;;;;25.20;12.10;;;;;;;-0.52;86.34;96433.47;5089792;28;20482;-68
2021/11/29 02:42:04;;;;;;;22.67;11.18;;;;;;;-0.51;86.32;96437.78;5089014;28;20107;-68
2021/11/29 02:44:30;;;;;;;27.67;12.75;;;;;;;-0.51;86.09;96460.13;5089332;28;20043;-68
2021/11/29 02:46:56;;;;;;;21.63;10.77;;;;;;;-0.50;85.64;96450.16;5089481;28;20388;-68
2021/11/29 02:49:21;;;;;;;22.83;10.57;;;;;;;-0.50;85.74;96460.94;5089640;28;20214;-68
2021/11/29 02:51:50;;;;;;;27.00;12.05;;;;;;;-0.51;85.70;96453.94;5090386;28;20716;-67
2021/11/29 02:54:19;;;;;;;30.92;13.73;;;;;;;-0.49;85.91;96462.53;5091156;28;20024;-67
2021/11/29 02:56:51;;;;;;;25.95;12.13;;;;;;;-0.51;85.62;96467.41;5090987;28;20133;-67
2021/11/29 02:59:20;;;;;;;35.95;15.02;;;;;;;-0.52;86.03;96463.09;5090842;28;20024;-67
2021/11/29 03:01:52;;;;;;;31.02;13.48;;;;;;;-0.50;86.23;96450.97;5090478;28;20024;-68
2021/11/29 03:04:22;;;;;;;36.78;14.90;;;;;;;-0.50;85.91;96450.97;5090848;28;20024;-67
2021/11/29 03:06:49;;;;;;;32.45;14.75;;;;;;;-0.49;85.88;96449.06;5094701;28;20020;-67
2021/11/29 03:09:14;;;;;;;37.47;15.63;;;;;;;-0.45;86.30;96447.44;5094844;28;20299;-67
2021/11/29 03:11:41;;;;;;;42.95;16.75;;;;;;;-0.44;86.12;96449.06;5094690;28;20012;-67
2021/11/29 03:14:07;;;;;;;47.03;19.20;;;;;;;-0.45;86.24;96450.16;5098478;28;20020;-67
2021/11/29 03:16:33;;;;;;;61.17;23.83;;;;;;;-0.46;85.89;96456.63;5094918;28;20074;-68
2021/11/29 03:18:59;;;;;;;49.70;18.52;;;;;;;-0.47;86.35;96457.69;5095133;28;20077;-67
2021/11/29 03:21:25;;;;;;;46.78;20.17;;;;;;;-0.46;86.24;96462.00;5094660;28;20028;-67
2021/11/29 03:23:55;;;;;;;55.13;23.35;;;;;;;-0.42;86.25;96457.69;5094290;28;20027;-67
2021/11/29 03:26:21;;;;;;;47.20;20.67;;;;;;;-0.41;85.94;96453.91;5094335;28;20035;-67
2021/11/29 03:28:49;;;;;;;48.08;22.52;;;;;;;-0.38;86.31;96458.75;5094678;28;20282;-67
2021/11/29 03:31:16;;;;;;;46.25;21.38;;;;;;;-0.35;85.97;96460.06;5094153;28;20051;-67
2021/11/29 03:33:43;;;;;;;38.75;18.88;;;;;;;-0.37;86.13;96468.44;5094435;28;20324;-68
2021/11/29 03:36:09;;;;;;;41.42;16.73;;;;;;;-0.38;85.55;96457.94;5076221;28;20468;-67
2021/11/29 03:38:35;;;;;;;41.05;16.73;;;;;;;-0.44;85.59;96456.34;5094301;28;20057;-67
2021/11/29 03:41:01;;;;;;;45.97;19.55;;;;;;;-0.49;85.80;96451.78;5094211;28;20141;-67
2021/11/29 03:43:27;;;;;;;43.22;17.27;;;;;;;-0.50;86.00;96453.69;5093786;28;20028;-67
2021/11/29 03:45:53;;;;;;;45.97;18.48;;;;;;;-0.54;85.38;96441.00;5075425;28;20016;-67
2021/11/29 03:48:19;;;;;;;43.75;19.63;;;;;;;-0.55;86.04;96451.00;5094275;28;20028;-67
2021/11/29 03:50:45;;;;;;;44.08;19.75;;;;;;;-0.54;85.89;96454.47;5095351;28;20078;-67
2021/11/29 03:53:11;;;;;;;36.92;14.98;;;;;;;-0.52;85.86;96460.41;5093950;28;20028;-67
2021/11/29 03:55:36;;;;;;;42.47;17.52;;;;;;;-0.54;85.60;96460.69;5094154;28;20030;-68
2021/11/29 03:58:02;;;;;;;38.00;15.65;;;;;;;-0.53;86.39;96451.53;5093994;28;20038;-67
2021/11/29 04:00:27;;;;;;;34.33;15.32;;;;;;;-0.54;85.81;96449.91;5094042;28;20488;-66
2021/11/29 04:02:53;;;;;;;38.47;14.18;;;;;;;-0.56;85.60;96448.56;5093263;28;20012;-67
2021/11/29 04:05:18;;;;;;;34.78;13.93;;;;;;;-0.61;86.23;96444.78;5093654;28;20028;-67
2021/11/29 04:07:44;;;;;;;33.83;14.75;;;;;;;-0.62;86.01;96443.22;5093158;28;20024;-67
2021/11/29 04:10:10;;;;;;;39.80;15.93;;;;;;;-0.61;86.06;96449.38;5094119;28;20024;-68
2021/11/29 04:12:35;;;;;;;39.10;16.58;;;;;;;-0.62;86.46;96437.81;5093290;28;20436;-68
2021/11/29 04:15:02;;;;;;;39.35;17.92;;;;;;;-0.62;86.27;96450.47;5093582;28;20024;-68
2021/11/29 04:17:28;;;;;;;37.28;15.35;;;;;;;-0.61;86.29;96452.09;5092969;28;20016;-67
2021/11/29 04:19:53;;;;;;;34.03;13.48;;;;;;;-0.61;86.25;96447.50;5093613;28;20076;-68
2021/11/29 04:22:19;;;;;;;38.28;15.80;;;;;;;-0.62;86.17;96455.84;5093142;28;20020;-68
2021/11/29 04:24:46;;;;;;;33.53;12.98;;;;;;;-0.62;86.11;96447.78;5093505;28;20101;-68
2021/11/29 04:27:12;;;;;;;50.92;18.63;;;;;;;-0.63;86.44;96457.75;5093503;28;20270;-67
2021/11/29 04:29:41;;;;;;;47.70;18.02;;;;;;;-0.63;86.13;96454.25;5094073;28;20111;-67
2021/11/29 04:32:07;;;;;;;47.53;18.88;;;;;;;-0.62;86.45;96453.97;5092711;28;20036;-67
2021/11/29 04:34:33;;;;;;;45.83;18.38;;;;;;;-0.60;86.29;96470.66;5093342;28;20390;-67
2021/11/29 04:36:59;;;;;;;43.90;17.58;;;;;;;-0.55;86.23;96469.84;5093086;28;20020;-68
2021/11/29 04:39:24;;;;;;;46.65;18.83;;;;;;;-0.50;86.03;96471.69;5087687;28;20502;-67
2021/11/29 04:41:50;;;;;;;47.90;20.05;;;;;;;-0.51;86.51;96472.78;5092263;28;20025;-68
2021/11/29 04:44:15;;;;;;;46.78;20.60;;;;;;;-0.52;86.48;96477.38;5092783;28;20376;-67
2021/11/29 04:46:42;;;;;;;39.63;18.55;;;;;;;-0.50;86.33;96477.91;5092677;28;20039;-68
2021/11/29 04:49:07;;;;;;;45.47;20.45;;;;;;;-0.51;86.61;96479.00;5074067;28;20039;-67
2021/11/29 04:51:33;;;;;;;36.97;16.05;;;;;;;-0.47;86.09;96471.97;5092820;28;20659;-68
2021/11/29 04:53:58;;;;;;;45.70;19.67;;;;;;;-0.46;86.10;96470.06;5092902;28;20020;-68
2021/11/29 04:56:24;;;;;;;58.83;26.35;;;;;;;-0.46;86.60;96468.22;5092748;28;20031;-67
2021/11/29 04:58:50;;;;;;;43.97;20.17;;;;;;;-0.44;86.24;96465.22;5092568;28;20435;-68
2021/11/29 05:01:16;;;;;;;44.47;19.67;;;;;;;-0.46;86.13;96467.38;5094169;28;20032;-67
2021/11/29 05:03:41;;;;;;;45.17;19.30;;;;;;;-0.48;86.26;96466.84;5092447;28;20025;-67
2021/11/29 05:06:07;;;;;;;40.28;17.90;;;;;;;-0.48;85.82;96472.25;5092768;28;20040;-68
2021/11/29 05:08:33;;;;;;;43.92;18.60;;;;;;;-0.50;86.23;96479.78;5091828;28;20028;-68
2021/11/29 05:11:00;;;;;;;49.90;20.05;;;;;;;-0.50;86.19;96477.09;5092411;28;20016;-67
2021/11/29 05:13:25;;;;;;;39.97;18.33;;;;;;;-0.50;86.33;96475.22;5092396;28;20024;-67
2021/11/29 05:15:51;;;;;;;38.70;16.15;;;;;;;-0.49;86.26;96476.84;5092702;28;20047;-68
2021/11/29 05:18:16;;;;;;;34.70;16.08;;;;;;;-0.49;86.11;96482.22;5093033;28;20028;-67
2021/11/29 05:20:43;;;;;;;47.08;20.75;;;;;;;-0.51;86.23;96483.56;5092438;28;20535;-67
2021/11/29 05:23:08;;;;;;;47.05;20.40;;;;;;;-0.49;85.98;96490.28;5092075;28;20028;-68
2021/11/29 05:25:34;;;;;;;81.25;34.83;;;;;;;-0.49;86.47;96486.78;5092407;28;20063;-68
2021/11/29 05:27:59;;;;;;;47.97;19.23;;;;;;;-0.47;86.61;96500.78;5091482;28;20027;-67
2021/11/29 05:30:25;;;;;;;32.00;14.90;;;;;;;-0.51;86.32;96497.84;5092137;28;20389;-67
2021/11/29 05:32:51;;;;;;;35.78;15.57;;;;;;;-0.52;86.12;96495.41;5092576;28;20050;-68
2021/11/29 05:35:17;;;;;;;38.25;17.30;;;;;;;-0.53;86.35;96502.69;5073749;28;20119;-67
2021/11/29 05:37:42;;;;;;;34.63;16.42;;;;;;;-0.55;86.24;96499.47;5092252;28;20065;-68
2021/11/29 05:40:09;;;;;;;27.83;12.52;;;;;;;-0.57;86.25;96495.41;5092765;28;20051;-68
2021/11/29 05:42:34;;;;;;;32.15;13.93;;;;;;;-0.58;86.30;96501.88;5091735;28;20186;-68
2021/11/29 05:44:59;;;;;;;32.55;14.13;;;;;;;-0.66;86.29;96506.75;5090971;28;20103;-66
2021/11/29 05:47:25;;;;;;;30.48;12.68;;;;;;;-0.68;86.33;96502.72;5091490;28;20039;-67
2021/11/29 05:49:50;;;;;;;29.45;13.20;;;;;;;-0.71;86.51;96514.84;5091437;28;20035;-67
2021/11/29 05:52:17;;;;;;;27.80;13.27;;;;;;;-0.71;86.67;96516.72;5091090;28;20096;-66
2021/11/29 05:54:42;;;;;;;29.85;14.02;;;;;;;-0.72;86.40;96518.59;5092174;28;20027;-66
2021/11/29 05:57:08;;;;;;;24.70;10.95;;;;;;;-0.70;86.33;96526.41;5091529;28;20361;-67
2021/11/29 05:59:33;;;;;;;23.15;11.13;;;;;;;-0.68;86.73;96526.94;5086688;28;20028;-68
2021/11/29 06:01:59;;;;;;;27.27;12.35;;;;;;;-0.68;86.76;96537.72;5090399;28;20273;-68
2021/11/29 06:04:24;;;;;;;26.58;11.85;;;;;;;-0.69;86.48;96528.84;5091887;28;20027;-68
2021/11/29 06:06:50;;;;;;;28.83;13.90;;;;;;;-0.70;86.76;96542.56;5091167;28;20111;-66
2021/11/29 06:09:15;;;;;;;26.75;13.00;;;;;;;-0.72;87.04;96531.25;5090674;28;20449;-66
2021/11/29 06:11:41;;;;;;;32.92;14.85;;;;;;;-0.70;86.65;96539.84;5072958;28;20410;-67
2021/11/29 06:14:07;;;;;;;39.25;16.92;;;;;;;-0.70;87.09;96553.31;5088497;28;20103;-67
2021/11/29 06:16:33;;;;;;;40.92;17.20;;;;;;;-0.70;86.87;96553.31;5090950;28;20028;-67
2021/11/29 06:18:59;;;;;;;39.70;18.67;;;;;;;-0.68;86.45;96553.84;5074224;28;20032;-67
2021/11/29 06:21:24;;;;;;;37.75;16.73;;;;;;;-0.63;87.11;96560.06;5089654;28;20093;-67
2021/11/29 06:23:50;;;;;;;42.63;16.33;;;;;;;-0.64;86.75;96552.25;5070746;28;20028;-67
2021/11/29 06:26:17;;;;;;;43.33;17.40;;;;;;;-0.64;86.41;96566.53;5072381;28;20035;-67
2021/11/29 06:28:43;;;;;;;53.30;21.30;;;;;;;-0.64;86.90;96568.41;5089711;28;20032;-67
2021/11/29 06:31:09;;;;;;;46.10;18.42;;;;;;;-0.64;86.66;96573.78;5089164;28;20047;-67
2021/11/29 06:33:34;;;;;;;47.35;20.98;;;;;;;-0.63;86.60;96575.41;5090874;28;20115;-75
2021/11/29 06:36:01;;;;;;;47.33;19.15;;;;;;;-0.60;86.46;96586.44;5091285;28;20400;-75
2021/11/29 06:38:27;;;;;;;42.28;17.75;;;;;;;-0.58;86.36;96583.47;5090794;28;20472;-75
2021/11/29 06:40:54;;;;;;;46.88;18.83;;;;;;;-0.56;86.51;96591.28;5095679;28;20077;-75
2021/11/29 06:43:21;;;;;;;47.63;20.13;;;;;;;-0.57;87.09;96595.03;5095894;28;20106;-75
2021/11/29 06:45:48;;;;;;;44.47;17.95;;;;;;;-0.55;86.79;96609.88;5098141;28;20480;-73
2021/11/29 06:48:14;;;;;;;42.13;17.63;;;;;;;-0.56;86.80;96602.03;5098930;28;20032;-75
2021/11/29 06:50:39;;;;;;;45.78;18.55;;;;;;;-0.58;86.64;96610.41;5080092;28;20406;-74
2021/11/29 06:53:05;;;;;;;43.35;16.55;;;;;;;-0.58;86.74;96618.47;5092152;28;20032;-75
2021/11/29 06:55:32;;;;;;;54.33;22.95;;;;;;;-0.55;86.78;96609.03;5093549;28;20031;-74
2021/11/29 06:57:58;;;;;;;56.10;20.38;;;;;;;-0.55;86.57;96617.13;5093360;28;20556;-73
2021/11/29 07:00:24;;;;;;;47.90;20.42;;;;;;;-0.54;86.64;96619.56;5093467;28;20098;-73
2021/11/29 07:02:51;;;;;;;48.50;20.38;;;;;;;-0.52;86.24;96621.97;5097087;28;20050;-73
2021/11/29 07:05:18;;;;;;;57.05;25.05;;;;;;;-0.50;86.35;96611.75;5094686;28;20728;-72
2021/11/29 07:07:44;;;;;;;51.30;22.08;;;;;;;-0.49;86.21;96634.91;5091196;28;20034;-73
2021/11/29 07:10:10;;;;;;;52.70;22.00;;;;;;;-0.53;86.29;96631.94;5094556;28;20051;-73
2021/11/29 07:12:38;;;;;;;51.67;21.48;;;;;;;-0.55;86.06;96635.97;5089305;28;20451;-75
2021/11/29 07:15:05;;;;;;;51.67;23.63;;;;;;;-0.58;85.94;96633.81;5088150;28;20035;-75
2021/11/29 07:17:31;;;;;;;53.83;22.88;;;;;;;-0.55;85.94;96636.78;5093148;28;20036;-76
2021/11/29 07:19:57;;;;;;;52.05;22.98;;;;;;;-0.56;86.62;96635.19;5094709;28;20510;-76
2021/11/29 07:22:24;;;;;;;58.75;25.48;;;;;;;-0.55;86.21;96630.59;5090387;28;20032;-76
2021/11/29 07:24:51;;;;;;;66.07;29.92;;;;;;;-0.53;86.52;96631.13;5092692;28;20031;-75
2021/11/29 07:27:17;;;;;;;64.38;26.15;;;;;;;-0.52;86.64;96630.06;5092592;28;20476;-75
2021/11/29 07:29:43;;;;;;;55.55;24.80;;;;;;;-0.49;86.13;96632.22;5092148;28;20043;-75
2021/11/29 07:32:08;;;;;;;62.85;25.75;;;;;;;-0.48;86.19;96625.75;5091696;28;20043;-75
2021/11/29 07:34:34;;;;;;;82.97;31.95;;;;;;;-0.47;86.51;96638.13;5091346;28;20035;-75
2021/11/29 07:36:59;;;;;;;57.58;24.50;;;;;;;-0.50;86.33;96633.28;5091917;28;20103;-75
2021/11/29 07:39:25;;;;;;;40.95;17.77;;;;;;;-0.51;86.17;96637.06;5091602;28;20081;-75
2021/11/29 07:41:52;;;;;;;55.25;20.75;;;;;;;-0.53;85.91;96636.50;5090502;28;20028;-76
2021/11/29 07:44:18;;;;;;;60.63;22.48;;;;;;;-0.54;86.07;96630.34;5093109;28;20027;-75
2021/11/29 07:46:43;;;;;;;38.47;17.17;;;;;;;-0.54;85.91;96630.34;5092590;28;20056;-75
2021/11/29 07:49:09;;;;;;;101.60;29.20;;;;;;;-0.55;86.23;96630.59;5091835;28;20288;-75
2021/11/29 07:51:34;;;;;;;76.88;26.42;;;;;;;-0.49;85.98;96642.97;5073190;28;20020;-74
2021/11/29 07:54:00;;;;;;;49.13;17.77;;;;;;;-0.50;85.76;96635.97;5091588;28;20026;-75
2021/11/29 07:56:25;;;;;;;58.45;21.25;;;;;;;-0.52;85.94;96638.94;5092733;28;20035;-75
2021/11/29 07:58:51;;;;;;;45.35;19.15;;;;;;;-0.53;85.79;96631.13;5092312;28;20479;-75
2021/11/29 08:01:16;;;;;;;39.70;18.13;;;;;;;-0.53;85.70;96644.59;5092219;28;20031;-75
2021/11/29 08:03:42;;;;;;;43.92;19.02;;;;;;;-0.52;85.72;96635.44;5092331;28;20035;-75
2021/11/29 08:06:08;;;;;;;46.63;18.27;;;;;;;-0.51;85.57;96645.13;5091272;28;20061;-75
2021/11/29 08:08:33;;;;;;;41.17;16.67;;;;;;;-0.51;85.84;96640.56;5092327;28;20032;-75
2021/11/29 08:10:59;;;;;;;43.10;17.35;;;;;;;-0.52;85.63;96632.75;5092165;28;20028;-75
2021/11/29 08:13:24;;;;;;;49.90;23.38;;;;;;;-0.55;85.51;96636.78;5091797;28;20028;-75
2021/11/29 08:15:50;;;;;;;32.78;16.10;;;;;;;-0.53;85.99;96636.50;5092493;28;20039;-75
2021/11/29 08:18:15;;;;;;;30.70;13.15;;;;;;;-0.52;85.83;96643.50;5091534;28;20413;-75
2021/11/29 08:20:41;;;;;;;25.15;12.35;;;;;;;-0.52;85.53;96638.94;5091273;28;20035;-76
2021/11/29 08:23:08;;;;;;;35.28;16.13;;;;;;;-0.51;85.49;96643.25;5090892;28;20040;-75
2021/11/29 08:25:36;;;;;;;36.30;13.00;;;;;;;-0.52;85.46;96643.50;5086240;28;20028;-79
2021/11/29 08:28:01;;;;;;;41.30;19.38;;;;;;;-0.51;85.45;96647.81;5092166;28;20097;-77
2021/11/29 08:30:27;;;;;;;38.20;18.90;;;;;;;-0.49;85.55;96657.28;5073300;28;20058;-77
2021/11/29 08:32:54;;;;;;;62.33;28.77;;;;;;;-0.51;85.69;96655.91;5072864;28;20491;-79
2021/11/29 08:35:20;;;;;;;33.85;15.93;;;;;;;-0.52;85.30;96651.59;5073624;28;20028;-79
2021/11/29 08:37:46;;;;;;;39.72;18.25;;;;;;;-0.52;85.63;96662.38;5073847;28;20028;-76
2021/11/29 08:40:21;;;;;;;55.00;19.73;;;;;;;-0.51;85.71;96674.75;5091061;28;20664;-74
2021/11/29 08:42:46;;;;;;;50.55;22.90;;;;;;;-0.47;85.78;96654.28;5091987;28;20506;-78
2021/11/29 08:45:13;;;;;;;53.63;21.10;;;;;;;-0.45;85.66;96662.91;5088625;28;20035;-79
2021/11/29 08:47:39;;;;;;;50.85;19.95;;;;;;;-0.46;85.45;96677.47;5091759;28;20381;-80
2021/11/29 08:50:07;;;;;;;48.05;19.88;;;;;;;-0.48;85.32;96669.66;5093583;28;20020;-75
2021/11/29 08:52:34;;;;;;;59.88;22.63;;;;;;;-0.49;85.47;96676.13;5072931;28;20032;-78
2021/11/29 08:55:04;;;;;;;39.15;19.80;;;;;;;-0.50;85.21;96682.59;5091574;28;20110;-76
2021/11/29 08:57:30;;;;;;;37.75;18.90;;;;;;;-0.51;85.24;96678.28;5091585;28;20031;-75
2021/11/29 08:59:55;;;;;;;32.05;16.33;;;;;;;-0.52;85.37;96690.13;5090883;28;20032;-75
2021/11/29 09:02:21;;;;;;;34.83;17.30;;;;;;;-0.54;85.12;96686.88;5071440;28;20498;-75
2021/11/29 09:04:46;;;;;;;36.42;16.63;;;;;;;-0.56;85.28;96682.81;5093001;28;20396;-75
2021/11/29 09:07:12;;;;;;;33.65;16.95;;;;;;;-0.57;84.93;96681.22;5090928;28;20204;-78
2021/11/29 09:09:37;;;;;;;30.73;15.00;;;;;;;-0.55;85.38;96684.44;5090015;28;20365;-75
2021/11/29 09:12:03;;;;;;;32.40;14.90;;;;;;;-0.55;85.06;96689.81;5090681;28;20483;-78
2021/11/29 09:14:29;;;;;;;40.53;16.52;;;;;;;-0.60;84.75;96682.56;5076844;28;20027;-77
2021/11/29 09:16:56;;;;;;;30.50;15.63;;;;;;;-0.61;84.83;96691.72;5092739;28;20117;-78
2021/11/29 09:19:22;;;;;;;24.23;13.05;;;;;;;-0.62;84.50;96680.16;5090145;28;20028;-74
2021/11/29 09:21:48;;;;;;;32.47;14.20;;;;;;;-0.62;85.12;96688.22;5072434;28;20157;-79
2021/11/29 09:24:13;;;;;;;44.72;17.15;;;;;;;-0.61;84.91;96689.81;5094030;28;20032;-80
2021/11/29 09:26:38;;;;;;;40.80;14.48;;;;;;;-0.63;85.29;96689.31;5090619;28;20042;-77
2021/11/29 09:29:04;;;;;;;26.60;13.48;;;;;;;-0.62;84.88;96690.94;5059889;28;20035;-79
2021/11/29 09:31:29;;;;;;;31.10;15.50;;;;;;;-0.63;84.70;96691.19;5095327;28;20069;-77
2021/11/29 09:33:55;;;;;;;30.70;13.82;;;;;;;-0.62;85.00;96698.19;5090409;28;20055;-77
2021/11/29 09:36:20;;;;;;;32.70;14.90;;;;;;;-0.63;84.93;96693.88;5090586;28;20388;-80
2021/11/29 09:38:46;;;;;;;21.35;11.07;;;;;;;-0.65;84.62;96696.84;5072625;28;20036;-78
2021/11/29 09:41:12;;;;;;;28.05;13.40;;;;;;;-0.66;84.40;96703.31;5089808;28;20032;-77
2021/11/29 09:43:39;;;;;;;22.38;11.35;;;;;;;-0.68;84.82;96696.56;5090420;28;20115;-77
2021/11/29 09:46:09;;;;;;;22.73;10.25;;;;;;;-0.69;84.42;96690.38;5089967;28;20479;-78
2021/11/29 09:48:34;;;;;;;37.33;16.33;;;;;;;-0.71;84.11;96684.44;5090812;28;20035;-79
2021/11/29 09:51:00;;;;;;;26.92;13.18;;;;;;;-0.72;84.66;96690.91;5090906;28;20032;-77
2021/11/29 09:53:30;;;;;;;26.20;12.95;;;;;;;-0.75;84.02;96691.44;5093079;28;20468;-77
2021/11/29 09:55:57;;;;;;;28.30;11.75;;;;;;;-0.76;84.48;96693.31;5089886;28;20050;-80
2021/11/29 09:58:23;;;;;;;23.90;12.25;;;;;;;-0.75;84.38;96686.03;5092344;28;20024;-79
2021/11/29 10:00:52;;;;;;;25.80;13.00;;;;;;;-0.70;84.34;96687.94;5090364;28;20032;-77
2021/11/29 10:03:18;;;;;;;30.38;14.23;;;;;;;-0.69;84.67;96693.06;5089317;28;20020;-77
2021/11/29 10:05:45;;;;;;;29.80;13.73;;;;;;;-0.67;84.00;96692.78;5091220;28;20039;-79
2021/11/29 10:08:19;;;;;;;31.13;15.50;;;;;;;-0.66;84.71;96697.91;5090242;28;20434;-79
2021/11/29 10:10:50;;;;;;;33.05;15.57;;;;;;;-0.66;84.60;96700.59;5088895;28;20107;-80
2021/11/29 10:13:16;;;;;;;22.88;12.68;;;;;;;-0.62;84.74;96700.88;5071165;28;20028;-80
2021/11/29 10:15:42;;;;;;;32.10;14.30;;;;;;;-0.60;84.25;96694.13;5071986;28;20031;-75
2021/11/29 10:18:08;;;;;;;27.42;14.75;;;;;;;-0.60;84.63;96706.78;5088884;28;20036;-78
2021/11/29 10:20:52;;;;;;;31.42;15.32;;;;;;;-0.63;84.03;96705.47;5083906;28;20039;-78
2021/11/29 10:23:24;;;;;;;30.85;15.95;;;;;;;-0.65;83.80;96710.31;5089260;28;20031;-81
2021/11/29 10:25:49;;;;;;;37.00;15.60;;;;;;;-0.65;83.95;96706.78;5089573;28;20020;-79
2021/11/29 10:28:42;;;;;;;33.97;16.70;;;;;;;-0.66;83.99;96708.69;5090314;28;20030;-75
2021/11/29 10:31:31;;;;;;;59.13;22.15;;;;;;;-0.70;83.71;96709.47;5085688;28;20051;-78
2021/11/29 10:33:56;;;;;;;45.65;20.35;;;;;;;-0.73;83.76;96715.38;5088602;28;20089;-77
2021/11/29 10:36:24;;;;;;;55.08;24.33;;;;;;;-0.80;83.70;96708.38;5089751;28;20024;-74
2021/11/29 10:38:54;;;;;;;52.17;21.50;;;;;;;-0.83;83.69;96713.47;5073795;28;20031;-79
2021/11/29 10:41:24;;;;;;;42.20;20.33;;;;;;;-0.84;84.19;96715.38;5089801;28;20118;-79
2021/11/29 10:43:49;;;;;;;48.92;20.83;;;;;;;-0.88;84.16;96711.59;5088176;28;20028;-79
2021/11/29 10:46:24;;;;;;;40.42;19.60;;;;;;;-0.90;84.25;96721.81;5089668;28;20080;-79
2021/11/29 10:48:51;;;;;;;57.08;24.88;;;;;;;-0.88;84.24;96732.31;5089691;28;20050;-79
2021/11/29 10:51:19;;;;;;;62.60;27.05;;;;;;;-0.84;84.16;96717.25;5089963;28;20043;-78
2021/11/29 10:53:49;;;;;;;37.50;18.10;;;;;;;-0.80;83.98;96724.50;5089750;28;20124;-77
2021/11/29 10:56:14;;;;;;;43.95;17.40;;;;;;;-0.80;84.06;96721.81;5093938;28;20060;-79
2021/11/29 10:58:47;;;;;;;39.90;17.23;;;;;;;-0.84;83.46;96722.63;5092341;28;20031;-79
2021/11/29 11:01:16;;;;;;;41.58;19.70;;;;;;;-0.84;83.99;96728.84;5083828;28;20024;-72
2021/11/29 11:03:55;;;;;;;51.72;22.27;;;;;;;-0.82;84.16;96731.25;5089087;28;20035;-77
2021/11/29 11:06:33;;;;;;;45.47;20.83;;;;;;;-0.77;83.97;96737.44;5091374;28;20032;-75
2021/11/29 11:08:59;;;;;;;40.17;18.90;;;;;;;-0.71;84.48;96740.97;5088843;28;20032;-77
2021/11/29 11:11:41;;;;;;;38.47;17.05;;;;;;;-0.70;83.85;96737.22;5088773;28;20028;-77
2021/11/29 11:14:06;;;;;;;40.10;18.45;;;;;;;-0.74;83.71;96752.28;5089663;28;20100;-78